GOGK

Kolda Airport

Kolda, Senegal
METAR GOGK 211200Z 14004KT CAVOK 32/23 Q1010
Observed Flight Rules
Oct-21 @ 12:00 UTC (3 hours ago) Visual Flight Rules
Wind Visibility Clouds
140° at 4 knots 10,000+ meters
  • Clear skies
Temperatures Readings
Current 32°C / 90°F
Dewpoint 23°C / 73°F
Humidity 59%
Altimeter 29.82" Hg
Pressure 1010 hPa
Elevation 10
METAR GOGK 211200Z 14004KT CAVOK 32/23 Q1010
Observed Flight Rules
Oct-21 @ 12:00 UTC
(3 hours ago)
VFR
Wind Visibility
140° at 4 knots 10,000+ meters
Clouds
  • Clear skies
Temperature Dewpoint
32°C / 90°F 23°C / 73°F
Humidity Altimeter Pressure
59% 29.82" Hg 1010 hPa